Time;durP1;ratioP1;P1;durP2;ratioP2;P2;SDS_P1;SDS_P2;PMS_P1;PMS_P2;Temp;Humidity;BMP_temperature;BMP_pressure;BME280_temperature;BME280_humidity;BME280_pressure;Samples;Min_cycle;Max_cycle;Signal;HPM_P1;HPM_P2
2023/12/26 00:00:14;;;;;;;34.35;18.95;;;13.80;99.90;;;;;;5226761;28;20477;-71
2023/12/26 00:02:44;;;;;;;36.42;19.48;;;13.90;99.90;;;;;;5226481;28;20032;-70
2023/12/26 00:05:15;;;;;;;36.05;18.05;;;13.60;99.90;;;;;;5226629;28;20059;-70
2023/12/26 00:07:46;;;;;;;32.42;16.23;;;13.70;99.90;;;;;;5226489;28;20730;-71
2023/12/26 00:10:17;;;;;;;34.35;17.25;;;13.70;99.90;;;;;;5226598;28;20049;-70
2023/12/26 00:12:48;;;;;;;39.20;18.33;;;13.70;99.90;;;;;;5226564;28;20099;-71
2023/12/26 00:15:19;;;;;;;29.05;15.98;;;14.10;99.90;;;;;;5226107;28;20396;-70
2023/12/26 00:17:50;;;;;;;36.55;16.00;;;14.00;99.90;;;;;;5226426;28;20402;-71
2023/12/26 00:20:21;;;;;;;28.25;14.02;;;13.90;99.90;;;;;;5226618;28;20380;-70
2023/12/26 00:22:52;;;;;;;38.85;13.70;;;14.10;99.90;;;;;;5225888;28;20477;-70
2023/12/26 00:25:22;;;;;;;35.25;12.18;;;13.90;99.90;;;;;;5226012;28;20441;-70
2023/12/26 00:27:53;;;;;;;26.85;12.43;;;13.80;99.90;;;;;;5224971;28;20033;-70
2023/12/26 00:30:24;;;;;;;28.88;12.23;;;13.90;99.90;;;;;;5224988;28;20033;-73
2023/12/26 00:32:55;;;;;;;25.75;12.20;;;13.80;99.90;;;;;;5225065;28;20029;-70
2023/12/26 00:35:26;;;;;;;27.05;12.90;;;13.90;99.90;;;;;;5224563;28;20369;-70
2023/12/26 00:37:58;;;;;;;26.40;12.60;;;13.70;99.90;;;;;;5225180;28;20102;-70
2023/12/26 00:40:29;;;;;;;36.10;13.05;;;13.70;99.90;;;;;;5225065;28;20017;-72
2023/12/26 00:43:00;;;;;;;30.40;12.63;;;13.70;99.90;;;;;;5225855;28;20098;-70
2023/12/26 00:45:31;;;;;;;30.38;12.63;;;13.50;99.90;;;;;;5224194;28;20512;-70
2023/12/26 00:48:02;;;;;;;27.60;12.25;;;13.60;99.90;;;;;;5222726;28;20040;-74
2023/12/26 00:50:34;;;;;;;27.08;11.02;;;13.50;99.90;;;;;;5205475;28;20040;-70
2023/12/26 00:53:05;;;;;;;27.50;11.80;;;13.50;99.90;;;;;;5205579;28;20068;-70
2023/12/26 00:55:36;;;;;;;25.80;11.82;;;13.40;99.90;;;;;;5204030;28;20029;-70
2023/12/26 00:58:07;;;;;;;25.42;11.80;;;13.30;99.90;;;;;;5204068;28;20029;-71
2023/12/26 01:00:38;;;;;;;30.23;12.40;;;13.30;99.90;;;;;;5205240;28;20473;-70
2023/12/26 01:03:09;;;;;;;30.30;14.18;;;13.40;99.90;;;;;;5205478;28;20017;-72
2023/12/26 01:05:40;;;;;;;26.13;14.43;;;13.20;99.90;;;;;;5205441;28;20033;-70
2023/12/26 01:08:11;;;;;;;28.08;16.38;;;13.30;99.90;;;;;;5205425;28;20491;-70
2023/12/26 01:10:42;;;;;;;30.05;15.10;;;13.40;99.90;;;;;;5204626;28;20026;-70
2023/12/26 01:13:14;;;;;;;25.48;11.40;;;13.30;99.90;;;;;;5204147;28;20473;-70
2023/12/26 01:15:45;;;;;;;24.70;11.25;;;13.40;99.90;;;;;;5204957;28;20103;-69
2023/12/26 01:18:16;;;;;;;27.92;12.05;;;13.50;99.90;;;;;;5205003;28;20091;-74
2023/12/26 01:20:47;;;;;;;23.60;11.45;;;13.50;99.90;;;;;;5204732;28;20100;-70
2023/12/26 01:23:18;;;;;;;23.73;11.18;;;13.50;99.90;;;;;;5204292;28;20033;-70
2023/12/26 01:25:49;;;;;;;27.05;11.70;;;13.30;99.90;;;;;;5202654;28;20025;-72
2023/12/26 01:28:20;;;;;;;26.13;11.95;;;13.40;99.90;;;;;;5203718;28;20121;-70
2023/12/26 01:30:50;;;;;;;24.30;13.07;;;13.30;99.90;;;;;;5203845;28;20143;-70
2023/12/26 01:33:21;;;;;;;24.88;11.70;;;13.40;99.90;;;;;;5203693;28;20439;-70
2023/12/26 01:35:52;;;;;;;24.35;12.88;;;13.20;99.90;;;;;;5203741;28;20102;-71
2023/12/26 01:38:23;;;;;;;23.75;12.23;;;13.30;99.90;;;;;;5204672;28;20381;-71
2023/12/26 01:40:54;;;;;;;27.55;12.10;;;13.40;99.90;;;;;;5204913;28;20115;-73
2023/12/26 01:43:25;;;;;;;26.00;12.60;;;13.40;99.90;;;;;;5204629;28;20021;-70
2023/12/26 01:46:00;;;;;;;31.33;12.93;;;13.20;99.90;;;;;;5203150;28;20137;-70
2023/12/26 01:48:32;;;;;;;27.65;11.82;;;13.40;99.90;;;;;;5208551;28;20041;-70
2023/12/26 01:51:04;;;;;;;27.20;12.07;;;13.30;99.90;;;;;;5208815;28;20029;-70
2023/12/26 01:53:38;;;;;;;26.67;11.50;;;13.40;99.90;;;;;;5208805;28;20898;-70
2023/12/26 01:56:14;;;;;;;27.02;12.40;;;13.10;99.90;;;;;;5208666;28;20025;-70
2023/12/26 01:58:48;;;;;;;27.42;11.77;;;13.40;99.90;;;;;;5208680;28;20025;-70
2023/12/26 02:01:19;;;;;;;27.10;12.10;;;13.10;99.90;;;;;;5208563;28;20106;-70
2023/12/26 02:03:54;;;;;;;22.95;11.60;;;13.10;99.90;;;;;;5208539;28;20060;-70
2023/12/26 02:06:25;;;;;;;30.88;13.07;;;13.00;99.90;;;;;;5208643;28;20026;-70
2023/12/26 02:08:57;;;;;;;28.42;12.63;;;13.30;99.90;;;;;;5208534;28;20066;-72
2023/12/26 02:11:28;;;;;;;30.25;12.75;;;13.10;99.90;;;;;;5208346;28;20025;-70
2023/12/26 02:13:59;;;;;;;25.23;12.45;;;12.90;99.90;;;;;;5206469;28;20040;-71
2023/12/26 02:16:32;;;;;;;25.48;13.27;;;13.20;99.90;;;;;;5206333;28;20124;-70
2023/12/26 02:19:03;;;;;;;23.58;12.45;;;13.10;99.90;;;;;;5207700;28;20040;-73
2023/12/26 02:21:34;;;;;;;26.58;13.93;;;13.00;99.90;;;;;;5206957;28;20021;-70
2023/12/26 02:24:05;;;;;;;24.65;12.38;;;13.10;99.90;;;;;;5205934;28;20049;-70
2023/12/26 02:26:40;;;;;;;33.53;13.57;;;13.20;99.90;;;;;;5207324;28;20032;-70
2023/12/26 02:29:12;;;;;;;32.22;12.75;;;13.10;99.90;;;;;;5206914;28;20136;-70
2023/12/26 02:31:44;;;;;;;21.90;11.48;;;13.00;99.90;;;;;;5207059;28;20017;-70
2023/12/26 02:34:16;;;;;;;27.90;12.25;;;13.00;99.90;;;;;;5206996;28;20029;-70
2023/12/26 02:36:47;;;;;;;23.30;11.32;;;13.10;99.90;;;;;;5207815;28;20032;-70
2023/12/26 02:39:19;;;;;;;22.60;11.75;;;13.00;99.90;;;;;;5206456;28;20121;-70
2023/12/26 02:41:50;;;;;;;28.33;11.48;;;13.10;99.90;;;;;;5207711;28;20079;-70
2023/12/26 02:44:20;;;;;;;25.35;11.60;;;13.00;99.90;;;;;;5206271;28;20037;-72
2023/12/26 02:46:51;;;;;;;26.55;11.15;;;13.10;99.90;;;;;;5207773;28;20041;-70
2023/12/26 02:49:22;;;;;;;21.70;10.45;;;13.00;99.90;;;;;;5207533;28;20042;-71
2023/12/26 02:51:53;;;;;;;22.90;10.75;;;12.80;99.90;;;;;;5207355;28;20096;-70
2023/12/26 02:54:24;;;;;;;20.38;9.63;;;13.00;99.90;;;;;;5207439;28;20021;-70
2023/12/26 02:56:55;;;;;;;22.10;9.85;;;13.10;99.90;;;;;;5205707;28;20080;-70
2023/12/26 02:59:26;;;;;;;24.73;11.38;;;13.00;99.90;;;;;;5207441;28;20029;-70
2023/12/26 03:02:00;;;;;;;24.75;10.30;;;13.00;99.90;;;;;;5207311;28;20377;-70
2023/12/26 03:04:30;;;;;;;21.48;10.43;;;12.90;99.90;;;;;;5207282;28;20132;-70
2023/12/26 03:07:01;;;;;;;27.65;10.85;;;13.00;99.90;;;;;;5207023;28;20100;-70
2023/12/26 03:09:32;;;;;;;23.77;9.80;;;12.90;99.90;;;;;;5206857;28;20116;-70
2023/12/26 03:12:03;;;;;;;21.60;9.73;;;12.80;99.90;;;;;;5206424;28;20029;-70
2023/12/26 03:14:34;;;;;;;21.08;10.13;;;12.90;99.90;;;;;;5696847;22;20016;-73
2023/12/26 03:17:05;;;;;;;26.63;10.25;;;13.10;99.90;;;;;;5235014;28;20024;-70
2023/12/26 03:19:36;;;;;;;23.27;10.30;;;12.90;99.90;;;;;;5246976;28;20031;-70
2023/12/26 03:22:07;;;;;;;20.73;8.82;;;12.90;99.90;;;;;;5245795;28;20116;-70
2023/12/26 03:24:37;;;;;;;21.15;9.85;;;12.80;99.90;;;;;;5245882;28;20052;-71
2023/12/26 03:27:08;;;;;;;22.55;9.50;;;12.80;99.90;;;;;;5247179;28;20074;-70
2023/12/26 03:29:39;;;;;;;26.65;11.45;;;12.70;99.90;;;;;;5236823;28;20040;-70
2023/12/26 03:32:10;;;;;;;24.80;9.57;;;12.90;99.90;;;;;;5227456;28;20025;-70
2023/12/26 03:34:41;;;;;;;22.42;10.30;;;12.90;99.90;;;;;;5227834;28;20452;-70
2023/12/26 03:37:12;;;;;;;24.65;9.80;;;12.80;99.90;;;;;;5227563;28;20123;-70
2023/12/26 03:39:43;;;;;;;22.13;9.90;;;12.90;99.90;;;;;;5227366;28;20028;-70
2023/12/26 03:42:14;;;;;;;22.17;10.73;;;13.00;99.90;;;;;;5227418;28;20437;-70
2023/12/26 03:44:46;;;;;;;23.02;9.88;;;13.00;99.90;;;;;;5227069;28;20036;-70
2023/12/26 03:47:17;;;;;;;27.88;10.93;;;13.00;99.90;;;;;;5230023;28;20405;-70
2023/12/26 03:49:48;;;;;;;29.17;10.85;;;12.90;99.90;;;;;;5225731;28;20041;-70
2023/12/26 03:52:19;;;;;;;22.85;10.20;;;12.90;99.90;;;;;;5225802;28;20040;-70
2023/12/26 03:54:53;;;;;;;23.08;10.25;;;12.80;99.90;;;;;;5227260;28;20025;-70
2023/12/26 03:57:23;;;;;;;24.73;9.73;;;13.00;99.90;;;;;;5226935;28;20032;-70
2023/12/26 03:59:54;;;;;;;25.30;11.45;;;12.90;99.90;;;;;;5226920;28;20025;-70
2023/12/26 04:02:25;;;;;;;25.42;11.18;;;13.10;99.90;;;;;;5226890;28;20445;-70
2023/12/26 04:04:56;;;;;;;33.13;11.98;;;13.00;99.90;;;;;;5226595;28;20025;-73
2023/12/26 04:07:27;;;;;;;22.33;10.52;;;12.90;99.90;;;;;;5224889;28;20627;-71
2023/12/26 04:09:58;;;;;;;29.42;11.40;;;12.90;99.90;;;;;;5225374;28;20075;-70
2023/12/26 04:12:29;;;;;;;24.70;10.63;;;13.00;99.90;;;;;;5225301;28;20024;-70
2023/12/26 04:15:00;;;;;;;27.90;10.23;;;13.10;99.90;;;;;;5224997;28;21381;-70
2023/12/26 04:17:31;;;;;;;26.60;10.88;;;12.90;99.90;;;;;;5224935;28;20027;-70
2023/12/26 04:20:02;;;;;;;25.33;10.05;;;12.90;99.90;;;;;;5224538;28;20073;-73
2023/12/26 04:22:33;;;;;;;23.65;10.60;;;12.90;99.90;;;;;;5224925;28;20013;-70
2023/12/26 04:25:06;;;;;;;23.13;10.82;;;12.80;99.90;;;;;;5225167;28;20362;-70
2023/12/26 04:27:37;;;;;;;25.45;10.20;;;12.90;99.90;;;;;;5225724;28;20023;-70
2023/12/26 04:30:08;;;;;;;28.20;10.45;;;12.90;99.90;;;;;;5225793;28;20025;-70
2023/12/26 04:32:39;;;;;;;27.58;9.93;;;13.00;99.90;;;;;;5226017;28;20473;-69
2023/12/26 04:35:10;;;;;;;23.33;9.90;;;12.60;99.90;;;;;;5225773;28;20036;-70
2023/12/26 04:37:41;;;;;;;25.25;10.02;;;12.70;99.90;;;;;;5224522;28;20025;-73
2023/12/26 04:40:12;;;;;;;25.95;9.45;;;12.90;99.90;;;;;;5228738;28;20040;-70
2023/12/26 04:42:44;;;;;;;31.02;10.50;;;12.80;99.90;;;;;;5229492;28;20097;-73
2023/12/26 04:45:15;;;;;;;21.75;9.02;;;12.80;99.90;;;;;;5225681;28;20107;-70
2023/12/26 04:47:46;;;;;;;23.88;10.30;;;12.70;99.90;;;;;;5225728;28;20048;-71
2023/12/26 04:50:16;;;;;;;23.48;9.50;;;12.90;99.90;;;;;;5225536;28;20045;-70
2023/12/26 04:52:48;;;;;;;24.85;9.85;;;12.70;99.90;;;;;;5222901;28;20020;-71
2023/12/26 04:55:18;;;;;;;24.88;9.23;;;12.70;99.90;;;;;;5225307;28;20053;-70
2023/12/26 04:57:49;;;;;;;27.98;9.77;;;12.70;99.90;;;;;;5225183;28;20056;-70
2023/12/26 05:00:20;;;;;;;29.30;10.30;;;12.90;99.90;;;;;;5225176;28;20029;-70
2023/12/26 05:02:51;;;;;;;26.15;9.75;;;12.80;99.90;;;;;;5224484;28;20025;-71
2023/12/26 05:05:24;;;;;;;30.58;10.18;;;12.70;99.90;;;;;;5224646;28;20025;-74
2023/12/26 05:07:56;;;;;;;27.13;10.85;;;13.00;99.90;;;;;;5223816;28;20053;-70
2023/12/26 05:10:27;;;;;;;24.80;10.73;;;12.70;99.90;;;;;;5223875;28;20036;-71
2023/12/26 05:12:58;;;;;;;29.35;11.07;;;12.80;99.90;;;;;;5224126;28;20385;-70
2023/12/26 05:15:28;;;;;;;24.05;12.05;;;12.70;99.90;;;;;;5223597;28;20029;-70
2023/12/26 05:18:01;;;;;;;27.50;11.18;;;13.00;99.90;;;;;;5204614;28;20079;-70
2023/12/26 05:20:32;;;;;;;25.27;11.20;;;12.80;99.90;;;;;;5203893;28;20100;-70
2023/12/26 05:23:03;;;;;;;25.63;11.40;;;13.00;99.90;;;;;;5211570;28;20116;-70
2023/12/26 05:25:33;;;;;;;26.08;10.70;;;12.80;99.90;;;;;;5229137;28;20472;-73
2023/12/26 05:28:05;;;;;;;23.83;12.25;;;12.80;99.90;;;;;;5228776;28;20075;-74
2023/12/26 05:30:37;;;;;;;26.10;12.98;;;12.80;99.90;;;;;;5229013;28;20419;-70
2023/12/26 05:33:08;;;;;;;28.75;12.27;;;12.80;99.90;;;;;;5229007;28;20025;-73
2023/12/26 05:35:39;;;;;;;31.85;13.50;;;12.80;99.90;;;;;;5229022;28;20112;-70
2023/12/26 05:38:10;;;;;;;23.50;11.98;;;12.70;99.90;;;;;;5229320;28;20096;-73
2023/12/26 05:40:41;;;;;;;30.45;12.45;;;12.60;99.90;;;;;;5229412;28;20029;-72
2023/12/26 05:43:11;;;;;;;25.13;12.75;;;12.90;99.90;;;;;;5229213;28;20099;-70
2023/12/26 05:45:42;;;;;;;26.00;12.60;;;12.80;99.90;;;;;;5229108;28;20033;-71
2023/12/26 05:48:13;;;;;;;25.15;11.65;;;13.10;99.90;;;;;;5229426;28;20551;-69
2023/12/26 05:50:44;;;;;;;28.92;12.95;;;12.90;99.90;;;;;;5229630;28;20028;-69
2023/12/26 05:53:15;;;;;;;32.17;13.93;;;13.10;99.90;;;;;;5228989;28;20025;-70
2023/12/26 05:55:46;;;;;;;30.63;13.68;;;13.00;99.90;;;;;;5228126;28;20013;-70
2023/12/26 05:58:17;;;;;;;32.78;14.60;;;13.10;99.90;;;;;;5227698;28;20035;-70
2023/12/26 06:00:48;;;;;;;29.05;15.13;;;13.20;99.90;;;;;;5217868;28;20028;-71
2023/12/26 06:03:19;;;;;;;31.33;14.20;;;13.20;99.90;;;;;;5213211;28;20026;-71
2023/12/26 06:05:50;;;;;;;30.98;13.95;;;13.30;99.90;;;;;;5219079;28;20416;-70
2023/12/26 06:08:21;;;;;;;33.60;15.75;;;13.20;99.90;;;;;;5213701;28;20038;-70
2023/12/26 06:10:52;;;;;;;32.40;15.20;;;13.10;99.90;;;;;;5213913;28;20406;-73
2023/12/26 06:13:22;;;;;;;30.45;13.45;;;13.30;99.90;;;;;;5216238;28;20025;-72
2023/12/26 06:15:53;;;;;;;26.25;12.45;;;13.20;99.90;;;;;;5212285;28;20085;-70
2023/12/26 06:18:24;;;;;;;26.30;12.50;;;13.40;99.90;;;;;;5215137;28;20129;-72
2023/12/26 06:20:55;;;;;;;24.65;12.27;;;13.10;99.90;;;;;;5214586;28;20032;-70
2023/12/26 06:23:26;;;;;;;27.95;12.35;;;13.50;99.90;;;;;;5214962;28;20420;-72
2023/12/26 06:25:57;;;;;;;24.98;11.85;;;13.60;99.90;;;;;;5218039;28;20025;-71
2023/12/26 06:28:28;;;;;;;29.30;12.20;;;13.40;99.90;;;;;;5217763;28;20044;-73
2023/12/26 06:30:59;;;;;;;28.48;12.27;;;13.40;99.90;;;;;;5215941;28;20039;-70
2023/12/26 06:33:30;;;;;;;26.42;11.82;;;13.60;99.90;;;;;;5215156;28;20107;-71
2023/12/26 06:36:01;;;;;;;29.73;11.70;;;13.70;99.90;;;;;;5214939;28;20036;-71
2023/12/26 06:38:32;;;;;;;32.72;12.15;;;13.70;99.90;;;;;;5214256;28;20035;-70
2023/12/26 06:41:04;;;;;;;27.98;12.95;;;13.80;99.90;;;;;;5219459;28;20036;-70
2023/12/26 06:46:16;;;;;;;;;;;13.80;99.90;;;;;;5451282;22;20122;-73
2023/12/26 06:48:48;;;;;;;31.10;15.40;;;14.00;99.90;;;;;;5156289;28;20001;-71
2023/12/26 06:51:19;;;;;;;26.80;13.65;;;14.30;99.90;;;;;;5154253;28;20022;-70
2023/12/26 06:53:50;;;;;;;23.33;12.75;;;14.40;99.90;;;;;;5154293;28;20029;-70
2023/12/26 06:56:21;;;;;;;22.25;10.77;;;14.30;99.90;;;;;;5154095;28;20034;-70
2023/12/26 06:58:52;;;;;;;28.10;10.82;;;14.60;99.90;;;;;;5152952;28;20030;-72
2023/12/26 07:01:23;;;;;;;26.38;11.52;;;14.60;99.90;;;;;;5153733;28;20018;-70
2023/12/26 07:03:54;;;;;;;24.95;11.38;;;14.80;99.90;;;;;;5152655;28;20112;-69
2023/12/26 07:06:25;;;;;;;24.63;11.82;;;14.80;99.90;;;;;;5149603;28;20030;-70
2023/12/26 07:08:56;;;;;;;23.30;11.45;;;14.90;99.90;;;;;;5151362;28;20042;-70
2023/12/26 07:11:28;;;;;;;21.98;10.52;;;14.80;99.90;;;;;;5153792;28;20034;-70
2023/12/26 07:13:59;;;;;;;27.55;10.45;;;15.00;99.90;;;;;;5156908;28;20085;-72
2023/12/26 07:16:33;;;;;;;25.63;11.25;;;15.10;99.90;;;;;;5136765;28;20031;-70
2023/12/26 07:19:04;;;;;;;20.77;9.23;;;15.30;99.90;;;;;;5135738;28;20545;-70
2023/12/26 07:21:35;;;;;;;22.05;9.75;;;15.10;99.90;;;;;;5132557;28;20026;-71
2023/12/26 07:24:06;;;;;;;23.17;10.48;;;15.10;99.90;;;;;;5134198;28;20387;-71
2023/12/26 07:26:37;;;;;;;28.95;12.07;;;15.20;99.90;;;;;;5133023;28;20527;-70
2023/12/26 07:29:08;;;;;;;25.33;10.70;;;15.10;99.90;;;;;;5134885;28;20046;-71
2023/12/26 07:31:39;;;;;;;24.10;10.30;;;15.30;99.90;;;;;;5148088;28;20037;-74
2023/12/26 07:34:10;;;;;;;21.58;12.07;;;15.50;99.90;;;;;;5137328;28;20522;-73
2023/12/26 07:36:41;;;;;;;24.85;11.50;;;15.40;99.90;;;;;;5134778;28;20035;-70
2023/12/26 07:39:12;;;;;;;21.85;11.32;;;15.40;99.90;;;;;;5133600;28;20042;-75
2023/12/26 07:41:43;;;;;;;26.52;12.15;;;15.60;99.90;;;;;;5134789;28;20466;-71
2023/12/26 07:44:14;;;;;;;24.80;11.32;;;15.80;99.90;;;;;;5133060;28;20379;-73
2023/12/26 07:46:45;;;;;;;23.33;13.45;;;15.90;99.90;;;;;;5140394;28;20049;-70
2023/12/26 07:49:16;;;;;;;23.05;12.52;;;15.90;99.90;;;;;;5132655;28;20667;-70
2023/12/26 07:51:46;;;;;;;23.60;12.80;;;16.10;99.90;;;;;;5138161;28;20130;-69
2023/12/26 07:54:17;;;;;;;25.40;12.90;;;16.20;99.90;;;;;;5141922;28;20045;-70
2023/12/26 07:56:48;;;;;;;21.20;13.32;;;16.10;99.90;;;;;;5144083;28;20057;-71
2023/12/26 07:59:19;;;;;;;23.45;12.57;;;16.30;99.90;;;;;;5143729;28;20109;-72
2023/12/26 08:01:50;;;;;;;24.45;11.88;;;16.50;99.90;;;;;;5143899;28;20042;-70
2023/12/26 08:04:21;;;;;;;21.02;12.50;;;16.60;99.90;;;;;;5144092;28;20114;-73
2023/12/26 08:06:52;;;;;;;25.77;12.00;;;16.60;99.90;;;;;;5144183;28;20031;-71
2023/12/26 08:09:23;;;;;;;26.25;11.18;;;16.70;99.90;;;;;;5144699;28;20043;-73
2023/12/26 08:11:54;;;;;;;23.60;10.23;;;17.00;99.90;;;;;;5144833;28;20121;-72
2023/12/26 08:14:24;;;;;;;26.30;10.35;;;17.00;99.90;;;;;;5143843;28;20113;-72
2023/12/26 08:16:55;;;;;;;25.42;10.82;;;17.00;99.90;;;;;;5145021;28;20110;-72
2023/12/26 08:19:26;;;;;;;22.17;11.38;;;17.00;99.90;;;;;;5145099;28;20069;-75
2023/12/26 08:21:57;;;;;;;24.42;12.82;;;17.10;99.90;;;;;;5145072;28;20395;-70
2023/12/26 08:24:28;;;;;;;27.10;14.65;;;17.20;99.90;;;;;;5144566;28;20492;-67
2023/12/26 08:26:59;;;;;;;23.27;13.35;;;17.40;99.90;;;;;;5144472;28;20035;-67
2023/12/26 08:29:30;;;;;;;22.15;12.32;;;17.40;99.90;;;;;;5144096;28;20035;-67
2023/12/26 08:32:01;;;;;;;26.08;11.50;;;17.50;99.90;;;;;;5144881;28;20359;-68
2023/12/26 08:34:31;;;;;;;17.98;10.30;;;17.50;99.90;;;;;;5144797;28;20035;-74
2023/12/26 08:37:03;;;;;;;19.50;11.30;;;17.60;99.90;;;;;;5143464;28;20422;-68
2023/12/26 08:39:33;;;;;;;19.95;10.35;;;17.50;99.90;;;;;;5144660;28;20031;-73
2023/12/26 08:42:06;;;;;;;26.40;12.70;;;17.40;99.90;;;;;;5144821;28;20028;-74
2023/12/26 08:44:36;;;;;;;21.15;11.73;;;17.70;99.90;;;;;;5144032;28;20027;-73
2023/12/26 08:47:07;;;;;;;21.63;11.98;;;17.60;99.90;;;;;;5144037;28;20442;-72
2023/12/26 08:49:38;;;;;;;25.83;11.30;;;17.70;99.90;;;;;;5143819;28;20038;-73
2023/12/26 08:52:09;;;;;;;22.00;10.35;;;17.60;99.90;;;;;;5142357;28;20091;-74
2023/12/26 08:54:43;;;;;;;21.15;10.15;;;17.70;99.90;;;;;;5141199;28;20027;-72
2023/12/26 08:57:14;;;;;;;20.65;9.50;;;17.60;99.90;;;;;;5143042;28;20027;-76
2023/12/26 08:59:45;;;;;;;17.95;9.85;;;18.00;99.90;;;;;;5142906;28;20029;-75
2023/12/26 09:02:16;;;;;;;18.50;9.57;;;17.90;99.90;;;;;;5143007;28;20054;-76
2023/12/26 09:04:47;;;;;;;19.38;10.15;;;17.90;99.90;;;;;;5142208;28;20041;-73
2023/12/26 09:07:18;;;;;;;21.13;10.80;;;18.00;99.90;;;;;;5142794;28;20031;-72
2023/12/26 09:09:49;;;;;;;21.48;10.40;;;18.10;99.90;;;;;;5144251;28;20041;-72
2023/12/26 09:12:19;;;;;;;56.63;12.13;;;18.00;99.90;;;;;;5144447;28;20378;-71
2023/12/26 09:14:51;;;;;;;21.92;10.52;;;17.80;99.90;;;;;;5143728;28;20090;-71
2023/12/26 09:17:22;;;;;;;19.77;9.45;;;18.00;99.90;;;;;;5124557;28;20439;-72
2023/12/26 09:19:53;;;;;;;19.92;9.75;;;18.10;99.90;;;;;;5128161;28;20023;-71
2023/12/26 09:22:24;;;;;;;24.48;9.32;;;18.10;99.90;;;;;;5144114;28;20035;-73
2023/12/26 09:24:55;;;;;;;14.75;9.15;;;18.30;99.90;;;;;;5143546;28;20382;-71
2023/12/26 09:27:26;;;;;;;22.58;9.27;;;18.40;99.90;;;;;;5149339;28;20027;-71
2023/12/26 09:29:57;;;;;;;20.23;9.20;;;18.50;99.90;;;;;;5156569;28;20065;-71
2023/12/26 09:32:28;;;;;;;24.60;9.48;;;18.40;99.90;;;;;;5148001;28;20038;-72
2023/12/26 09:34:59;;;;;;;19.50;10.00;;;18.40;99.90;;;;;;5143205;28;20027;-73
2023/12/26 09:37:34;;;;;;;21.77;12.45;;;18.40;99.90;;;;;;5144020;28;20546;-75
2023/12/26 09:40:11;;;;;;;20.10;13.48;;;18.30;99.90;;;;;;5143772;28;20031;-73
2023/12/26 09:42:42;;;;;;;20.55;13.48;;;18.50;99.90;;;;;;5143319;28;20031;-71
2023/12/26 09:45:13;;;;;;;20.42;13.30;;;18.80;99.90;;;;;;5142969;28;20055;-71
2023/12/26 09:47:44;;;;;;;17.73;11.77;;;18.80;99.90;;;;;;5152157;28;20109;-71
2023/12/26 09:50:15;;;;;;;18.08;12.13;;;18.70;99.90;;;;;;5162288;28;20026;-72
2023/12/26 09:53:00;;;;;;;21.45;10.18;;;18.80;99.90;;;;;;5147366;28;20098;-74
2023/12/26 09:55:31;;;;;;;21.23;11.20;;;19.00;99.90;;;;;;5152250;28;20045;-71
2023/12/26 09:58:03;;;;;;;17.92;10.45;;;19.20;99.90;;;;;;5142815;28;20035;-72
2023/12/26 10:00:36;;;;;;;20.35;10.57;;;19.10;99.90;;;;;;5141721;28;20035;-72
2023/12/26 10:03:07;;;;;;;19.23;10.77;;;18.90;99.90;;;;;;5143700;28;20094;-72
2023/12/26 10:05:39;;;;;;;20.05;10.32;;;19.10;99.90;;;;;;5144456;28;20034;-72
2023/12/26 10:08:11;;;;;;;18.92;10.55;;;19.30;99.90;;;;;;5156172;28;20038;-72
2023/12/26 10:10:43;;;;;;;18.77;10.50;;;19.70;99.90;;;;;;5156965;28;20137;-72
2023/12/26 10:13:15;;;;;;;17.88;9.05;;;19.70;99.90;;;;;;5147181;28;20089;-72
2023/12/26 10:15:47;;;;;;;18.17;9.48;;;19.60;99.90;;;;;;5145904;28;20034;-72
2023/12/26 10:18:18;;;;;;;18.23;9.18;;;19.60;99.90;;;;;;5147312;28;20027;-72
2023/12/26 10:20:49;;;;;;;19.40;8.68;;;19.40;99.90;;;;;;5147131;28;20435;-72
2023/12/26 10:23:20;;;;;;;20.85;9.23;;;19.40;99.90;;;;;;5146964;28;20108;-72
2023/12/26 10:25:51;;;;;;;20.00;9.13;;;19.40;99.90;;;;;;5139613;28;20034;-73
2023/12/26 10:28:22;;;;;;;16.88;9.07;;;19.40;99.90;;;;;;5126911;28;20433;-73
2023/12/26 10:30:53;;;;;;;17.70;9.43;;;19.80;99.90;;;;;;5127083;28;20114;-72
2023/12/26 10:33:27;;;;;;;16.20;9.38;;;19.80;99.90;;;;;;5126810;28;20023;-71
2023/12/26 10:36:05;;;;;;;18.88;10.50;;;19.40;99.90;;;;;;5140108;28;20034;-72
2023/12/26 10:38:39;;;;;;;16.23;9.10;;;19.40;99.90;;;;;;5145705;28;20026;-72
2023/12/26 10:41:27;;;;;;;21.90;10.68;;;19.70;99.90;;;;;;5146000;28;20483;-73
2023/12/26 10:44:01;;;;;;;15.93;9.90;;;19.60;99.90;;;;;;5144228;28;20698;-73
2023/12/26 10:46:32;;;;;;;17.25;9.40;;;19.60;99.90;;;;;;5145733;28;20565;-72
2023/12/26 10:49:06;;;;;;;18.35;9.93;;;19.80;99.90;;;;;;5143754;28;20142;-72
2023/12/26 10:51:44;;;;;;;17.70;9.15;;;20.10;99.90;;;;;;5145294;28;20821;-72
2023/12/26 10:54:25;;;;;;;16.08;9.73;;;19.90;99.90;;;;;;5145225;28;20019;-73
2023/12/26 10:56:58;;;;;;;17.63;9.52;;;20.00;99.90;;;;;;5145828;28;20077;-72
2023/12/26 11:03:15;;;;;;;15.82;9.05;;;19.60;99.90;;;;;;5145725;28;20042;-72
2023/12/26 11:06:04;;;;;;;18.95;9.52;;;19.80;99.90;;;;;;5144440;28;20011;-71
2023/12/26 11:08:35;;;;;;;19.48;9.43;;;20.10;99.90;;;;;;5145812;28;20035;-72
2023/12/26 11:11:25;;;;;;;19.75;10.13;;;20.40;99.90;;;;;;5146507;28;20034;-75
2023/12/26 11:17:26;;;;;;;17.70;11.15;;;20.20;99.90;;;;;;5146182;28;20030;-73
2023/12/26 11:20:34;;;;;;;18.80;10.93;;;20.00;99.90;;;;;;5145153;28;20065;-70
2023/12/26 11:30:17;;;;;;;18.25;9.55;;;19.80;99.90;;;;;;5145743;28;20070;-80
2023/12/26 11:36:14;;;;;;;15.95;8.60;;;19.90;99.90;;;;;;5145028;28;20494;-76
2023/12/26 11:39:04;;;;;;;13.77;8.13;;;19.70;99.90;;;;;;5145139;28;20031;-75
2023/12/26 11:45:01;;;;;;;17.35;10.48;;;20.10;99.90;;;;;;5144350;28;20591;-73
2023/12/26 11:47:57;;;;;;;20.67;13.05;;;20.50;99.90;;;;;;5144571;28;20034;-78
2023/12/26 11:50:28;;;;;;;14.93;11.30;;;20.30;99.90;;;;;;5144076;28;20031;-79
2023/12/26 11:52:59;;;;;;;17.67;12.43;;;20.40;99.90;;;;;;5144275;28;20026;-79
2023/12/26 11:58:56;;;;;;;20.05;13.15;;;20.10;99.90;;;;;;5145092;28;20058;-77
2023/12/26 12:15:04;;;;;;;19.67;13.38;;;20.00;99.90;;;;;;5143834;28;20097;-73
2023/12/26 12:20:49;;;;;;;16.83;12.32;;;20.70;99.90;;;;;;5154686;28;20038;-73
2023/12/26 12:27:21;;;;;;;21.05;11.48;;;21.40;99.90;;;;;;5164965;28;20076;-78
2023/12/26 12:30:29;;;;;;;14.32;8.88;;;22.00;99.90;;;;;;5163840;28;20434;-77
2023/12/26 12:33:19;;;;;;;16.52;7.63;;;24.10;99.90;;;;;;5164472;28;20649;-75
2023/12/26 12:36:10;;;;;;;19.30;11.70;;;26.00;99.90;;;;;;5164574;28;20033;-73
2023/12/26 12:38:59;;;;;;;15.73;8.32;;;28.90;99.90;;;;;;5164299;28;20053;-74
2023/12/26 12:54:25;;;;;;;;;;;31.20;99.90;;;;;;5124078;29;20110;-73
2023/12/26 12:57:14;;;;;;;13.40;8.70;;;29.50;99.90;;;;;;5123917;28;19917;-72
2023/12/26 12:59:45;;;;;;;16.52;11.38;;;31.10;99.90;;;;;;5122964;29;20046;-76
2023/12/26 13:09:12;;;;;;;12.77;7.00;;;30.60;99.90;;;;;;5123053;29;20542;-76
2023/12/26 13:17:58;;;;;;;13.27;7.80;;;29.90;99.90;;;;;;5124691;29;20395;-79
2023/12/26 13:20:48;;;;;;;16.40;8.48;;;27.90;99.90;;;;;;5124064;29;20047;-72
2023/12/26 13:30:12;;;;;;;13.80;8.35;;;27.00;99.90;;;;;;5123949;29;20067;-78
2023/12/26 13:32:43;;;;;;;17.50;14.68;;;23.30;99.90;;;;;;5123932;29;20171;-73
2023/12/26 13:35:33;;;;;;;14.23;9.30;;;22.50;99.90;;;;;;5123956;29;20098;-72
2023/12/26 13:38:22;;;;;;;13.35;9.05;;;21.80;99.90;;;;;;5123842;29;20046;-77
2023/12/26 13:40:53;;;;;;;16.35;7.32;;;21.10;99.90;;;;;;5123976;28;20093;-72
2023/12/26 13:43:43;;;;;;;14.35;7.63;;;20.70;99.90;;;;;;5127747;28;20015;-75
2023/12/26 13:52:49;;;;;;;12.85;7.85;;;20.10;99.90;;;;;;5127143;29;20090;-77
2023/12/26 13:55:20;;;;;;;17.20;9.18;;;19.90;99.90;;;;;;5127007;29;20632;-75
2023/12/26 13:57:50;;;;;;;12.27;7.85;;;19.80;99.90;;;;;;5125043;29;20493;-76
2023/12/26 14:00:21;;;;;;;16.55;7.55;;;19.70;99.90;;;;;;5126258;29;20543;-73
2023/12/26 14:02:52;;;;;;;20.38;8.77;;;19.60;99.90;;;;;;5126159;29;20030;-72
2023/12/26 14:05:23;;;;;;;16.00;8.82;;;19.30;99.90;;;;;;5126317;29;20491;-72
2023/12/26 14:07:57;;;;;;;15.32;8.50;;;19.40;99.90;;;;;;5126079;29;20019;-73
2023/12/26 14:10:28;;;;;;;13.10;8.02;;;19.00;99.90;;;;;;5126727;29;20086;-72
2023/12/26 14:12:59;;;;;;;15.43;8.38;;;19.00;99.90;;;;;;5127289;28;20118;-77
2023/12/26 14:15:30;;;;;;;16.88;8.07;;;18.80;99.90;;;;;;5127048;29;20109;-78
2023/12/26 14:18:02;;;;;;;18.35;9.65;;;18.60;99.90;;;;;;5125961;29;20492;-77
2023/12/26 14:20:33;;;;;;;16.63;9.55;;;18.60;99.90;;;;;;5125927;29;20534;-72
2023/12/26 14:23:04;;;;;;;23.52;10.27;;;18.50;99.90;;;;;;5127415;29;20015;-77